Markus Lang

Chefscout - VfL Wolfsburg
3 Apr 2027
Samstag
Verarbeitung

Persönlichkeit

Anpassungsfähigkeit (11) Ehrgeiz (13) Kontroverse (15) Loyalität (16) Druck (12) Professionalität (3) Fairness (8) Temperament (8)

Profil

Trainerstil Demokratisch
Lizenz Kontinentale A
Entschlossenheit 11
Menschenführung 7
Motivation 14
Disziplin 8
Arbeitszufriedenheit
66%
Ermüdung
0%
Rolle Chefscout
Gehalt 79.8K p/W
Vertrag 14.03.2029

Leistung

Verhalten Gut
Trainingseffektivität
37%
Spielerentwicklung
40%
Verletzungsprävention
75%
Taktische Umsetzung
55%

Letzte Ereignisse

Spieler begutachtet jetzt
Nahm an einer Scouting-Besprechung teil jetzt
Empfahl ein Transferziel jetzt
Empfahl ein Transferziel jetzt
Spieler begutachtet jetzt
Spieler begutachtet jetzt
Spieler begutachtet 7T her
Spieler begutachtet 7T her

Aktuell beobachtet

174
Spieler Verein Status Fähigkeit Vertrauen Beobachtet Zuletzt beobachtet Letzte Stimme
Yves Bissouma Tottenham Aktiv 153 / 139 40% 3 02.04.2027 -
Pablo Rosario Porto Aktiv 148 / 133 40% 5 02.04.2027 -
Philipp Lienhart SC Freiburg Aktiv 154 / 146 40% 3 01.04.2027 -
Seiya Maikuma AZ Aktiv 138 / 141 40% 1 01.04.2027 -
Ben Ahmed Kohili Paradou Aktiv 112 / 104 40% 1 01.04.2027 -
Gorka Carrera Real Sociedad Aktiv 123 / 116 40% 1 01.04.2027 -
Marcos Antonio Sport Recife Aktiv 141 / 134 40% 2 30.03.2027 -
Merih Demiral Al-Ahli Aktiv 130 / 126 40% 1 30.03.2027 -
Sébastien Durand Tours Aktiv 146 / 136 40% 3 29.03.2027 -
Thierry Rendall Correia Venezia Aktiv 139 / 146 40% 3 29.03.2027 -
Marcel Ruiz Toluca Aktiv 149 / 148 40% 3 28.03.2027 -
Michel Ndary Adopo Cagliari Aktiv 140 / 142 40% 1 28.03.2027 -
Munir Albacete Aktiv 126 / 120 40% 1 28.03.2027 -
Daniel Muñoz Racing Genk Aktiv 155 / 148 40% 3 26.03.2027 -
Emam Ashour Al Ahly Aktiv 135 / 137 40% 4 26.03.2027 -
Roger Ibañez Al-Ahli Aktiv 160 / 154 40% 6 25.03.2027 -
Davide Calabria Panathinaikos Aktiv 138 / 132 40% 3 25.03.2027 -
Richard Ledezma Guadalajara Aktiv 150 / 125 40% 2 23.03.2027 -
Renan Lodi Atlético Mineiro Aktiv 121 / 138 40% 4 22.03.2027 -
Nino Zenit Aktiv 148 / 140 40% 3 22.03.2027 -
Malcom Al Jazira Aktiv 148 / 160 40% 5 21.03.2027 -
Pedro Malheiro Al Wasl Aktiv 137 / 144 40% 1 21.03.2027 -
Roger Brugué Levante Aktiv 123 / 127 40% 1 21.03.2027 -
Nayef Aguerd Olympique de Marseille Aktiv 149 / 144 40% 8 19.03.2027 -
Hwang In-Beom Porto Aktiv 147 / 144 40% 3 19.03.2027 -
Djibril Sow Genoa Aktiv 139 / 140 40% 4 18.03.2027 -
Diego Costa Krasnodar Aktiv 131 / 141 40% 1 17.03.2027 -
Jan Bednarek Porto Aktiv 154 / 148 40% 10 16.03.2027 -
Iqraam Rayners Mamelodi Sundowns Aktiv 121 / 135 40% 1 16.03.2027 -
Helinho Toluca Aktiv 148 / 135 40% 1 16.03.2027 -
Isi Palazón Rayo Vallecano Aktiv 147 / 136 40% 5 14.03.2027 -
Sandro Las Palmas Aktiv 130 / 128 40% 2 14.03.2027 -
Davinson Sánchez Galatasaray Aktiv 136 / 155 40% 9 12.03.2027 -
Eren Elmalı Galatasaray Aktiv 133 / 133 40% 1 12.03.2027 -
Jean Rodriguez Chamois Niortais Aktiv 152 / 142 40% 7 11.03.2027 -
Percy Erasmus SuperSport United Aktiv 123 / 116 40% 1 11.03.2027 -
Zizo Al Ahly Aktiv 131 / 132 40% 1 11.03.2027 -
Kauã Elias Shakhtar Aktiv 131 / 130 40% 1 10.03.2027 -
Dom Ballard Leyton Orient Aktiv 129 / 126 40% 1 10.03.2027 -
Valentino Lazaro Al Ain Aktiv 149 / 130 40% 2 06.03.2027 -
Sikou Niakaté Braga Aktiv 128 / 141 40% 1 05.03.2027 -
Lucas Paquetá Flamengo Aktiv 148 / 149 40% 3 04.03.2027 -
Álex Valle Como Aktiv 145 / 138 40% 1 03.03.2027 -
Marquinhos Spartak Moscow Aktiv 125 / 125 40% 1 03.03.2027 -
Efraín Álvarez Guadalajara Aktiv 136 / 130 40% 1 03.03.2027 -
Maher Carrizo Ajax Aktiv 132 / 126 40% 1 02.03.2027 -
Pablo Maffeo Olympiacos Aktiv 152 / 136 40% 2 28.02.2027 -
Oleksandr Zinchenko Fenerbahce Aktiv 155 / 145 40% 3 26.02.2027 -
Mohamed Simakan Al-Nassr Aktiv 130 / 135 40% 3 24.02.2027 -
Youssef Al Bloushi Al Shabab Aktiv 157 / 149 40% 1 24.02.2027 -
Bart van Rooij Twente Aktiv 133 / 140 40% 1 23.02.2027 -
Lukas Klostermann RB Leipzig Aktiv 126 / 133 40% 3 20.02.2027 -
Oussama Targhalline Feyenoord Aktiv 129 / 135 40% 2 19.02.2027 -
Gustaf Lagerbielke Braga Aktiv 144 / 131 40% 1 07.02.2027 -
Odilon Kossounou Atalanta Aktiv 137 / 140 40% 1 06.02.2027 -
Federico Pereira Toluca Aktiv 125 / 134 40% 1 05.02.2027 -
Batista Mendy Trabzonspor Aktiv 129 / 142 40% 2 04.02.2027 -
Danilo Botafogo Aktiv 123 / 139 40% 1 04.02.2027 -
Rasmus Kristensen FC Midtjylland Aktiv 149 / 150 40% 1 03.02.2027 -
Moussa Niakhaté Olympique Lyonnais Aktiv 138 / 143 40% 4 01.02.2027 -
Toni Fruk Anderlecht Aktiv 132 / 133 66% 1 11.01.2027 Befürworten
Kyle Walker-Peters West Ham United Aktiv 139 / 134 40% 1 10.01.2027 -
Ismaël Bennacer Palmeiras Aktiv 143 / 147 40% 2 08.01.2027 -
Aleix Febas Celta Aktiv 133 / 144 40% 1 07.01.2027 -
Yacine Adli Al-Shabab Aktiv 127 / 149 40% 1 05.01.2027 -
Antoine Guérin Chamois Niortais Aktiv 162 / 154 40% 1 02.01.2027 -
Roberto Alvarado Guadalajara Aktiv 139 / 139 66% 1 01.01.2027 Befürworten
Jaden Philogene Ipswich Town Verloren 136 / 137 66% 1 01.01.2027 Befürworten
Jakub Moder Feyenoord Aktiv 143 / 145 40% 3 29.12.2026 -
Benjamin Henrichs RB Leipzig Aktiv 153 / 142 40% 1 29.12.2026 -
Lucas Torreira Galatasaray Aktiv 151 / 160 40% 5 28.12.2026 -
Nehuén Pérez Porto Aktiv 145 / 136 40% 1 28.12.2026 -
Caio Henrique Ajax Aktiv 137 / 130 40% 1 27.12.2026 -
Takumi Minamino Monaco Aktiv 141 / 132 40% 1 27.12.2026 -
Wilfried Singo Galatasaray Aktiv 151 / 143 40% 1 25.12.2026 -
Israel Reyes Club America Aktiv 130 / 133 40% 3 24.12.2026 -
Bernardo TSG Hoffenheim Aktiv 132 / 140 40% 2 23.12.2026 -
Farès Chaïbi Eintracht Frankfurt Aktiv 132 / 148 40% 1 23.12.2026 -
Alexis Vega Toluca Aktiv 149 / 148 40% 4 19.12.2026 -
Grischa Prömel Heidenheim Aktiv 150 / 135 40% 1 19.12.2026 -
Radek Vítek Middlesbrough Aktiv 130 / 138 40% 3 17.12.2026 -
Sebastián Córdova Pumas UNAM Aktiv 129 / 133 40% 1 17.12.2026 -
Marvin Keller Young Boys Aktiv 142 / 144 40% 1 17.12.2026 -
Ajay Matthews Millwall Aktiv 97 / 104 40% 1 17.12.2026 -
Aitor Ruibal Betis Aktiv 145 / 141 40% 1 14.12.2026 -
Patrick Berg Bodo/Glimt Aktiv 128 / 148 40% 2 11.12.2026 -
Iván Martín Racing Club Aktiv 158 / 156 40% 3 10.12.2026 -
Matthieu Udol RC Lens Aktiv 129 / 131 40% 1 10.12.2026 -
David Fernández O'Higgins Aktiv 112 / 123 40% 2 09.12.2026 -
Beñat Turrientes Real Sociedad Aktiv 147 / 139 40% 1 07.12.2026 -
Lukáš Provod Slavia Prague Aktiv 154 / 138 40% 4 05.12.2026 -
Ryan Kavuma-McQueen Chelsea Aktiv 95 / 119 40% 2 04.12.2026 -
Esequiel Barco Spartak Moscow Aktiv 137 / 135 40% 1 04.12.2026 -
Furkan Dursun Thun Aktiv 101 / 111 40% 4 03.12.2026 -
Dženan Pejčinović VfB Stuttgart Aktiv 130 / 131 40% 1 03.12.2026 -
Théo Hernández Al-Hilal Aktiv 140 / 138 40% 2 02.12.2026 -
Hidemasa Morita Hull City Aktiv 152 / 137 40% 3 29.11.2026 -
Mauro Arambarri River Plate Aktiv 170 / 166 40% 5 28.11.2026 -
Axel Openda KV Oostende Aktiv 128 / 125 40% 2 27.11.2026 -
Nikolay Zlatev Cherno More Aktiv 105 / 110 40% 2 25.11.2026 -
Christos Zafeiris Galatasaray Aktiv 125 / 144 40% 1 25.11.2026 -
Agustín Palavecino Cruz Azul Aktiv 149 / 141 40% 4 24.11.2026 -
Diego Coppola Paris FC Aktiv 148 / 141 40% 1 24.11.2026 -
Fabrício Bruno Cruzeiro Aktiv 127 / 146 40% 1 21.11.2026 -
Stephen Eustáquio Swansea City Aktiv 127 / 138 40% 1 19.11.2026 -
Soufiane Rahimi Al Ain Aktiv 124 / 131 40% 1 19.11.2026 -
Ainsley Maitland-Niles Olympique Lyonnais Aktiv 138 / 130 40% 1 15.11.2026 -
Martinelli Fluminense Aktiv 132 / 126 40% 1 14.11.2026 -
Luis Romo Guadalajara Aktiv 127 / 146 40% 2 09.11.2026 -
Orbelín Pineda Monterrey Aktiv 148 / 148 40% 3 08.11.2026 -
Sofyan Amrabat Ajax Aktiv 130 / 142 40% 1 06.11.2026 -
Gabriel Sara Galatasaray Aktiv 131 / 138 40% 1 05.11.2026 -
Timothy Castagne Fulham Aktiv 131 / 141 40% 1 04.11.2026 -
Léo Ortiz Flamengo Aktiv 128 / 145 40% 2 03.11.2026 -
Brais Méndez Columbus Crew Aktiv 154 / 136 40% 1 01.11.2026 -
Javi Galán Celta Aktiv 141 / 150 40% 5 31.10.2026 -
Kenny Tete Fulham Aktiv 136 / 136 40% 3 30.10.2026 -
José Paradela Cruz Azul Aktiv 151 / 131 40% 7 29.10.2026 -
Sergio Reguilón Inter Miami CF Aktiv 138 / 133 40% 2 29.10.2026 -
Jon Guridi Sevilla Aktiv 138 / 130 40% 1 28.10.2026 -
Ritsu Doan Gamba Osaka Aktiv 152 / 140 40% 2 26.10.2026 -
Donnell McNeilly Nottingham Forest Aktiv 102 / 118 40% 1 26.10.2026 -
Will Lankshear Middlesbrough Aktiv 111 / 131 40% 3 23.10.2026 -
Cesar Corona Veracruz Aktiv 126 / 135 40% 2 22.10.2026 -
Hany Mukhtar Hamburger SV Aktiv 125 / 136 40% 1 22.10.2026 -
Haissem Hassan Bloemfontein Celtic Aktiv 149 / 140 40% 1 20.10.2026 -
Sergej Milinković-Savić Al-Hilal Aktiv 145 / 154 40% 1 20.10.2026 -
Héctor Bellerín Betis Aktiv 132 / 134 40% 2 19.10.2026 -
Jesus Sinisterra Sevilla Aktiv 138 / 150 40% 1 18.10.2026 -
Nicolás Fernández Mercau New York City Aktiv 150 / 128 40% 1 17.10.2026 -
Óliver Monterrey Aktiv 151 / 129 40% 2 16.10.2026 -
Michy Fellaini KV Oostende Aktiv 128 / 138 40% 1 15.10.2026 -
Alejandro Zendejas Club America Aktiv 125 / 137 40% 3 11.10.2026 -
Gorka Guruzeta Athletic Bilbao Aktiv 152 / 146 40% 2 10.10.2026 -
Alexander Lyng SonderjyskE Aktiv 127 / 116 40% 2 09.10.2026 -
Ilias Akhomach Villarreal Aktiv 129 / 135 40% 2 06.10.2026 -
Santiago Montiel Independiente Aktiv 135 / 124 40% 1 04.10.2026 -
Leandro Lozano Boca Juniors Aktiv 125 / 114 40% 1 04.10.2026 -
Jesús Angulo Tigres Aktiv 130 / 131 40% 1 04.10.2026 -
Denis Bouanga Los Angeles Football Club Aktiv 124 / 146 40% 1 04.10.2026 -
Conrad Harder RB Leipzig Aktiv 122 / 135 40% 1 02.10.2026 -
Ryan Gauld Vancouver Whitecaps Aktiv 132 / 146 40% 1 01.10.2026 -
Jens Petter Hauge Bodo/Glimt Aktiv 128 / 137 40% 1 29.09.2026 -
Arkaitz Mariezkurrena Real Sociedad Aktiv 109 / 122 40% 2 28.09.2026 -
Yoshan Valois Lanús Aktiv 124 / 128 40% 1 28.09.2026 -
Adama Traoré Deportivo La Coruña Aktiv 127 / 139 40% 4 26.09.2026 -
Fernando Gorriarán Tigres Aktiv 124 / 137 40% 2 25.09.2026 -
Takuma Asano Sanfrecce Hiroshima Aktiv 124 / 148 40% 1 22.09.2026 -
Eliezer Mayenda Stade Rennais Aktiv 130 / 134 40% 1 21.09.2026 -
Justin Hammel Grasshopper Aktiv 109 / 127 40% 1 20.09.2026 -
Michael Cooper Sheffield United Aktiv 135 / 122 40% 1 20.09.2026 -
Marco Asensio Fenerbahce Aktiv 163 / 147 40% 1 14.09.2026 -
Jonathan Bamba Chicago Fire Aktiv 120 / 135 40% 1 14.09.2026 -
Diego Conde Villarreal Aktiv 129 / 131 40% 1 14.09.2026 -
Thiago Almada River Plate Aktiv 161 / 137 40% 3 12.09.2026 -
Luke Baartman Chippa United Aktiv 110 / 95 40% 2 05.09.2026 -
Ángel Correa River Plate Aktiv 138 / 147 40% 1 05.09.2026 -
Evander FC Cincinnati Aktiv 121 / 144 40% 1 02.09.2026 -
Kasra Taheri Sepahan Aktiv 122 / 118 40% 1 01.09.2026 -
Vitor Roque Palmeiras Aktiv 126 / 135 40% 1 01.09.2026 -
Rayan Fofana RC Lens Aktiv 121 / 123 40% 1 31.08.2026 -
Rocco Vata Watford Aktiv 122 / 127 40% 1 29.08.2026 -
Leon Bailey Aston Villa Aktiv 141 / 134 40% 1 28.08.2026 -
Josip Juranović Union Berlin Aktiv 139 / 128 40% 1 25.08.2026 -
Rúben Neves Al-Hilal Aktiv 160 / 142 40% 1 24.08.2026 -
Samú Al-Nassr Aktiv 128 / 159 40% 2 21.08.2026 -
Saša Lukić Ipswich Town Aktiv 142 / 133 40% 1 19.08.2026 -
Alan Varela Porto Aktiv 149 / 150 40% 1 19.08.2026 -
Rico Henry RB Leipzig Aktiv 133 / 140 40% 1 18.08.2026 -
Antonín Kinský Tottenham Aktiv 127 / 139 40% 1 11.08.2026 -
Patrick Mainka Heidenheim Aktiv 141 / 135 58% 1 10.08.2026 -
Uwe Franke Mouscron Aktiv 128 / 137 40% 1 04.08.2026 -
Jan Paul van Hecke Tottenham Aktiv 158 / 161 40% 1 02.08.2026 -
Robin Koch Eintracht Frankfurt Aktiv 148 / 146 40% 1 02.08.2026 -